createdAt,value
2023-01-19T00:01:41.895Z,97608.60
2023-01-19T00:04:09.749Z,97608.20
2023-01-19T00:06:37.508Z,97606.80
2023-01-19T00:09:05.227Z,97611.20
2023-01-19T00:11:32.989Z,97613.60
2023-01-19T00:14:00.693Z,97614.60
2023-01-19T00:16:30.567Z,97615.00
2023-01-19T00:18:58.252Z,97610.20
2023-01-19T00:21:26.209Z,97616.40
2023-01-19T00:23:53.871Z,97615.60
2023-01-19T00:26:22.357Z,97612.80
2023-01-19T00:28:53.149Z,97611.60
2023-01-19T00:31:21.712Z,97621.20
2023-01-19T00:33:51.608Z,97623.20
2023-01-19T00:36:19.925Z,97615.60
2023-01-19T00:38:47.770Z,97613.80
2023-01-19T00:41:15.745Z,97615.40
2023-01-19T00:43:43.627Z,97619.40
2023-01-19T00:46:11.415Z,97616.40
2023-01-19T00:48:39.205Z,97619.60
2023-01-19T00:51:06.876Z,97617.40
2023-01-19T00:53:34.617Z,97620.80
2023-01-19T00:56:04.886Z,97615.60
2023-01-19T00:58:32.517Z,97612.20
2023-01-19T01:01:04.850Z,97604.80
2023-01-19T01:03:33.098Z,97601.00
2023-01-19T01:06:00.959Z,97592.00
2023-01-19T01:08:28.642Z,97580.80
2023-01-19T01:10:57.108Z,97582.80
2023-01-19T01:13:27.944Z,97587.00
2023-01-19T01:15:57.188Z,97590.20
2023-01-19T01:18:26.225Z,97592.60
2023-01-19T01:21:01.773Z,97592.80
2023-01-19T01:23:29.724Z,97599.80
2023-01-19T01:25:57.507Z,97596.20
2023-01-19T01:28:25.922Z,97596.80
2023-01-19T01:30:57.167Z,97591.60
2023-01-19T01:33:41.302Z,97583.00
2023-01-19T01:36:12.254Z,97579.20
2023-01-19T01:38:43.867Z,97573.60
2023-01-19T01:41:12.393Z,97571.00
2023-01-19T01:43:50.456Z,97571.60
2023-01-19T01:46:20.179Z,97574.40
2023-01-19T01:49:05.736Z,97568.80
2023-01-19T01:51:52.027Z,97567.40
2023-01-19T01:54:29.763Z,97572.80
2023-01-19T01:57:03.640Z,97582.60
2023-01-19T01:59:43.242Z,97588.60
2023-01-19T02:02:38.015Z,97588.00
2023-01-19T02:05:17.374Z,97583.80
2023-01-19T02:08:26.328Z,97587.80
2023-01-19T02:11:14.220Z,97597.80
2023-01-19T02:13:47.066Z,97605.40
2023-01-19T02:16:17.655Z,97603.20
2023-01-19T02:18:46.666Z,97606.60
2023-01-19T02:21:31.718Z,97605.40
2023-01-19T02:24:02.907Z,97605.80
2023-01-19T02:26:40.880Z,97598.00
2023-01-19T02:29:14.678Z,97600.20
2023-01-19T02:31:42.918Z,97587.60
2023-01-19T02:34:15.361Z,97589.20
2023-01-19T02:36:52.556Z,97587.20
2023-01-19T02:39:36.733Z,97595.80
2023-01-19T02:42:12.423Z,97607.00
2023-01-19T02:44:45.212Z,97612.40
2023-01-19T02:47:14.012Z,97613.60
2023-01-19T02:49:41.951Z,97613.80
2023-01-19T02:52:18.011Z,97615.00
2023-01-19T02:55:09.832Z,97617.40
2023-01-19T02:57:46.579Z,97622.60
2023-01-19T03:00:25.306Z,97622.40
2023-01-19T03:03:32.166Z,97633.60
2023-01-19T03:06:15.369Z,97637.40
2023-01-19T03:09:09.063Z,97637.40
2023-01-19T03:11:45.547Z,97637.00
2023-01-19T03:14:22.633Z,97637.80
2023-01-19T03:17:01.531Z,97641.80
2023-01-19T03:19:37.957Z,97646.00
2023-01-19T03:22:13.722Z,97642.40
2023-01-19T03:24:46.195Z,97642.60
2023-01-19T03:27:32.168Z,97647.80
2023-01-19T03:30:09.901Z,97642.60
2023-01-19T03:32:51.742Z,97639.60
2023-01-19T03:35:25.538Z,97635.40
2023-01-19T03:37:58.171Z,97635.60
2023-01-19T03:40:32.519Z,97632.00
2023-01-19T03:43:03.618Z,97634.80
2023-01-19T03:45:36.645Z,97632.20
2023-01-19T03:48:05.946Z,97633.60
2023-01-19T03:50:33.847Z,97630.40
2023-01-19T03:53:14.150Z,97641.00
2023-01-19T03:55:47.419Z,97648.80
2023-01-19T03:58:15.262Z,97653.20
2023-01-19T04:00:43.696Z,97653.60
2023-01-19T04:03:15.955Z,97647.60
2023-01-19T04:05:45.278Z,97651.20
2023-01-19T04:08:13.541Z,97659.40
2023-01-19T04:10:41.284Z,97658.60
2023-01-19T04:13:09.082Z,97659.00
2023-01-19T04:15:37.121Z,97664.00
2023-01-19T04:18:05.438Z,97671.20
2023-01-19T04:20:33.890Z,97669.60
2023-01-19T04:23:02.117Z,97678.20
2023-01-19T04:25:30.260Z,97680.40
2023-01-19T04:27:58.445Z,97684.60
2023-01-19T04:30:27.793Z,97691.40
2023-01-19T04:32:56.276Z,97692.40
2023-01-19T04:35:24.068Z,97686.00
2023-01-19T04:37:51.869Z,97681.40
2023-01-19T04:40:20.178Z,97678.40
2023-01-19T04:42:47.961Z,97686.00
2023-01-19T04:45:15.844Z,97691.80
2023-01-19T04:47:43.551Z,97689.60
2023-01-19T04:50:11.740Z,97696.40
2023-01-19T04:52:39.574Z,97702.80
2023-01-19T04:55:08.496Z,97702.00
2023-01-19T04:57:36.188Z,97706.00
2023-01-19T05:00:06.918Z,97709.80
2023-01-19T05:02:35.107Z,97721.60
2023-01-19T05:05:05.294Z,97730.60
2023-01-19T05:07:32.904Z,97736.00
2023-01-19T05:10:01.119Z,97737.40
2023-01-19T05:12:28.847Z,97737.60
2023-01-19T05:14:56.561Z,97734.40
2023-01-19T05:17:24.398Z,97732.40
2023-01-19T05:19:52.144Z,97735.60
2023-01-19T05:22:20.181Z,97745.20
2023-01-19T05:24:47.799Z,97744.40
2023-01-19T05:27:15.445Z,97743.40
2023-01-19T05:29:43.122Z,97752.40
2023-01-19T05:32:11.084Z,97766.20
2023-01-19T05:34:39.477Z,97767.60
2023-01-19T05:37:07.329Z,97768.00
2023-01-19T05:39:35.047Z,97765.20
2023-01-19T05:42:02.830Z,97769.80
2023-01-19T05:44:30.610Z,97769.40
2023-01-19T05:46:58.495Z,97766.40
2023-01-19T05:49:26.364Z,97769.40
2023-01-19T05:51:54.128Z,97772.20
2023-01-19T05:54:21.840Z,97772.20
2023-01-19T05:56:51.617Z,97765.20
2023-01-19T05:59:24.123Z,97763.60
2023-01-19T06:01:53.659Z,97767.80
2023-01-19T06:04:21.640Z,97750.80
2023-01-19T06:06:50.755Z,97748.60
2023-01-19T06:09:18.779Z,97759.80
2023-01-19T06:11:47.420Z,97763.20
2023-01-19T06:14:15.242Z,97767.00
2023-01-19T06:16:43.033Z,97767.20
2023-01-19T06:19:11.037Z,97765.20
2023-01-19T06:21:38.683Z,97766.60
2023-01-19T06:24:06.609Z,97771.20
2023-01-19T06:26:34.377Z,97778.00
2023-01-19T06:29:02.098Z,97783.60
2023-01-19T06:31:29.946Z,97779.00
2023-01-19T06:33:57.654Z,97780.80
2023-01-19T06:36:25.508Z,97777.00
2023-01-19T06:38:53.429Z,97775.60
2023-01-19T06:41:21.101Z,97776.80
2023-01-19T06:43:49.021Z,97789.00
2023-01-19T06:46:16.754Z,97787.00
2023-01-19T06:48:44.483Z,97792.20
2023-01-19T06:51:12.751Z,97798.60
2023-01-19T06:53:40.450Z,97804.60
2023-01-19T06:56:09.712Z,97809.80
2023-01-19T06:58:37.965Z,97814.20
2023-01-19T07:01:07.225Z,97818.80
2023-01-19T07:03:38.110Z,97822.00
2023-01-19T07:06:09.210Z,97817.00
2023-01-19T07:08:38.294Z,97818.60
2023-01-19T07:11:26.102Z,97818.20
2023-01-19T07:13:59.755Z,97824.20
2023-01-19T07:16:27.569Z,97828.80
2023-01-19T07:18:55.867Z,97831.20
2023-01-19T07:21:23.863Z,97834.60
2023-01-19T07:23:52.878Z,97849.80
2023-01-19T07:26:21.712Z,97852.00
2023-01-19T07:28:50.672Z,97854.40
2023-01-19T07:31:19.177Z,97864.20
2023-01-19T07:33:47.352Z,97866.20
2023-01-19T07:36:15.535Z,97870.80
2023-01-19T07:38:43.353Z,97871.80
2023-01-19T07:41:11.619Z,97877.00
2023-01-19T07:43:39.396Z,97880.20
2023-01-19T07:46:08.286Z,97883.40
2023-01-19T07:48:36.200Z,97885.60
2023-01-19T07:51:11.038Z,97885.60
2023-01-19T07:53:41.930Z,97884.00
2023-01-19T07:56:10.783Z,97885.20
2023-01-19T07:58:39.875Z,97890.80
2023-01-19T08:01:13.590Z,97883.80
2023-01-19T08:03:41.417Z,97882.80
2023-01-19T08:06:22.772Z,97887.60
2023-01-19T08:08:51.095Z,97885.00
2023-01-19T08:11:18.758Z,97881.40
2023-01-19T08:13:46.756Z,97881.00
2023-01-19T08:16:14.384Z,97886.80
2023-01-19T08:18:42.643Z,97890.60
2023-01-19T08:21:10.354Z,97893.80
2023-01-19T08:23:38.259Z,97904.00
2023-01-19T08:26:30.425Z,97901.00
2023-01-19T08:29:02.337Z,97900.60
2023-01-19T08:31:30.741Z,97899.40
2023-01-19T08:33:58.891Z,97894.80
2023-01-19T08:36:27.401Z,97902.00
2023-01-19T08:38:55.114Z,97909.60
2023-01-19T08:41:23.092Z,97904.60
2023-01-19T08:43:50.799Z,97894.60
2023-01-19T08:46:21.347Z,97898.60
2023-01-19T08:48:50.287Z,97898.20
2023-01-19T08:51:18.944Z,97891.80
2023-01-19T08:53:48.890Z,97890.80
2023-01-19T08:56:18.044Z,97888.80
2023-01-19T08:58:53.613Z,97886.60
2023-01-19T09:01:31.152Z,97895.40
2023-01-19T09:03:59.116Z,97903.20
2023-01-19T09:06:28.139Z,97916.60
2023-01-19T09:08:55.886Z,97918.40
2023-01-19T09:11:23.594Z,97922.60
2023-01-19T09:13:51.567Z,97929.00
2023-01-19T09:16:19.335Z,97937.20
2023-01-19T09:18:47.263Z,97936.20
2023-01-19T09:21:16.263Z,97931.60
2023-01-19T09:23:44.605Z,97935.80
2023-01-19T09:26:12.373Z,97930.00
2023-01-19T09:28:40.286Z,97928.40
2023-01-19T09:31:09.524Z,97934.20
2023-01-19T09:33:37.608Z,97939.40
2023-01-19T09:36:05.728Z,97937.80
2023-01-19T09:38:34.043Z,97932.20
2023-01-19T09:41:01.910Z,97930.40
2023-01-19T09:43:47.772Z,97932.20
2023-01-19T09:46:39.787Z,97931.60
2023-01-19T09:49:23.332Z,97931.20
2023-01-19T09:51:51.468Z,97924.60
2023-01-19T09:54:45.619Z,97925.20
2023-01-19T09:57:14.982Z,97923.60
2023-01-19T09:59:43.927Z,97919.00
2023-01-19T10:02:46.569Z,97917.00
2023-01-19T10:05:35.691Z,97910.00
2023-01-19T10:08:27.895Z,97902.80
2023-01-19T10:10:58.899Z,97905.60
2023-01-19T10:13:51.797Z,97903.60
2023-01-19T10:16:31.563Z,97896.20
2023-01-19T10:19:38.171Z,97895.40
2023-01-19T10:22:28.504Z,97905.40
2023-01-19T10:25:01.768Z,97899.20
2023-01-19T10:27:35.582Z,97895.60
2023-01-19T10:30:04.135Z,97895.40
2023-01-19T10:32:35.939Z,97892.60
2023-01-19T10:35:21.877Z,97899.40
2023-01-19T10:37:58.348Z,97903.40
2023-01-19T10:40:37.869Z,97895.40
2023-01-19T10:43:43.513Z,97903.60
2023-01-19T10:46:34.391Z,97900.00
2023-01-19T10:49:02.696Z,97905.20
2023-01-19T10:51:30.742Z,97900.20
2023-01-19T10:54:04.532Z,97903.40
2023-01-19T10:56:38.561Z,97901.20
2023-01-19T10:59:07.446Z,97897.40
2023-01-19T11:01:37.368Z,97901.40
2023-01-19T11:04:29.858Z,97899.80
2023-01-19T11:07:21.389Z,97895.20
2023-01-19T11:09:50.218Z,97889.80
2023-01-19T11:12:24.026Z,97883.20
2023-01-19T11:14:53.624Z,97876.80
2023-01-19T11:17:25.851Z,97882.20
2023-01-19T11:20:02.232Z,97878.40
2023-01-19T11:22:33.930Z,97882.60
2023-01-19T11:25:04.868Z,97871.00
2023-01-19T11:27:37.776Z,97868.00
2023-01-19T11:30:17.461Z,97869.60
2023-01-19T11:32:47.052Z,97874.40
2023-01-19T11:35:38.965Z,97863.20
2023-01-19T11:38:13.292Z,97865.20
2023-01-19T11:40:50.839Z,97863.80
2023-01-19T11:43:22.204Z,97859.40
2023-01-19T11:45:49.967Z,97858.60
2023-01-19T11:48:36.706Z,97863.80
2023-01-19T11:51:13.315Z,97868.60
2023-01-19T11:53:49.373Z,97870.20
2023-01-19T11:56:21.997Z,97863.60
2023-01-19T11:58:50.253Z,97859.00
2023-01-19T12:01:34.102Z,97871.40
2023-01-19T12:04:14.912Z,97869.20
2023-01-19T12:06:54.975Z,97871.00
2023-01-19T12:09:31.161Z,97869.00
2023-01-19T12:12:07.948Z,97868.00
2023-01-19T12:14:54.865Z,97865.80
2023-01-19T12:17:45.000Z,97872.80
2023-01-19T12:20:31.343Z,97870.60
2023-01-19T12:23:16.176Z,97873.60
2023-01-19T12:26:44.610Z,97872.00
2023-01-19T12:29:17.368Z,97877.00
2023-01-19T12:31:45.581Z,97879.40
2023-01-19T12:34:47.822Z,97886.40
2023-01-19T12:37:28.757Z,97890.60
2023-01-19T12:40:01.786Z,97884.80
2023-01-19T12:42:30.019Z,97878.60
2023-01-19T12:45:14.720Z,97883.60
2023-01-19T12:47:53.099Z,97888.40
2023-01-19T12:50:25.878Z,97882.00
2023-01-19T12:52:58.626Z,97883.00
2023-01-19T12:55:31.181Z,97878.00
2023-01-19T12:58:17.712Z,97873.20
2023-01-19T13:00:49.666Z,97869.20
2023-01-19T13:03:26.983Z,97874.00
2023-01-19T13:05:56.745Z,97874.00
2023-01-19T13:08:29.795Z,97874.60
2023-01-19T13:11:00.534Z,97877.80
2023-01-19T13:13:40.111Z,97886.40
2023-01-19T13:16:20.839Z,97880.80
2023-01-19T13:18:57.151Z,97885.20
2023-01-19T13:21:30.982Z,97881.40
2023-01-19T13:24:04.954Z,97883.20
2023-01-19T13:26:41.394Z,97884.60
2023-01-19T13:29:34.040Z,97887.60
2023-01-19T13:32:25.648Z,97889.80
2023-01-19T13:35:01.984Z,97891.40
2023-01-19T13:37:41.812Z,97892.40
2023-01-19T13:40:21.779Z,97897.60
2023-01-19T13:42:53.038Z,97900.80
2023-01-19T13:45:33.780Z,97898.20
2023-01-19T13:48:07.804Z,97899.40
2023-01-19T13:50:39.376Z,97897.60
2023-01-19T13:53:24.209Z,97906.00
2023-01-19T13:56:17.469Z,97908.20
2023-01-19T13:59:17.401Z,97916.80
2023-01-19T14:01:47.323Z,97927.80
2023-01-19T14:04:34.593Z,97929.20
2023-01-19T14:07:15.167Z,97927.60
2023-01-19T14:09:44.928Z,97939.40
2023-01-19T14:12:17.548Z,97935.80
2023-01-19T14:14:49.511Z,97936.00
2023-01-19T14:17:37.480Z,97934.80
2023-01-19T14:20:06.457Z,97931.00
2023-01-19T14:22:41.844Z,97926.80
2023-01-19T14:25:32.496Z,97932.80
2023-01-19T14:28:29.179Z,97937.60
2023-01-19T14:31:01.511Z,97939.00
2023-01-19T14:33:41.763Z,97944.00
2023-01-19T14:36:39.364Z,97944.80
2023-01-19T14:39:23.196Z,97937.80
2023-01-19T14:41:53.406Z,97944.40
2023-01-19T14:44:40.065Z,97942.60
2023-01-19T14:47:29.444Z,97942.20
2023-01-19T14:50:07.570Z,97944.60
2023-01-19T14:52:41.677Z,97943.00
2023-01-19T14:55:49.277Z,97946.20
2023-01-19T14:58:21.350Z,97949.80
2023-01-19T15:01:01.884Z,97951.60
2023-01-19T15:03:43.370Z,97954.20
2023-01-19T15:06:20.977Z,97948.60
2023-01-19T15:08:50.405Z,97951.00
2023-01-19T15:11:26.650Z,97952.80
2023-01-19T15:13:55.463Z,97958.60
2023-01-19T15:16:24.209Z,97960.00
2023-01-19T15:18:52.546Z,97957.80
2023-01-19T15:21:26.588Z,97955.80
2023-01-19T15:23:55.307Z,97958.60
2023-01-19T15:26:26.164Z,97960.00
2023-01-19T15:28:56.129Z,97962.20
2023-01-19T15:31:26.474Z,97965.40
2023-01-19T15:33:54.408Z,97961.80
2023-01-19T15:36:25.014Z,97959.40
2023-01-19T15:38:53.189Z,97967.80
2023-01-19T15:41:26.380Z,97966.60
2023-01-19T15:43:54.488Z,97969.00
2023-01-19T15:46:25.557Z,97968.40
2023-01-19T15:48:54.488Z,97973.80
2023-01-19T15:51:25.933Z,97979.80
2023-01-19T15:53:55.149Z,97975.80
2023-01-19T15:56:31.389Z,97970.20
2023-01-19T15:58:59.748Z,97969.40
2023-01-19T16:01:33.812Z,97969.80
2023-01-19T16:04:06.815Z,97973.20
2023-01-19T16:06:34.669Z,97974.80
2023-01-19T16:09:03.870Z,97967.40
2023-01-19T16:11:34.429Z,97971.20
2023-01-19T16:14:02.565Z,97974.60
2023-01-19T16:16:30.460Z,97977.20
2023-01-19T16:18:58.412Z,97983.80
2023-01-19T16:21:26.928Z,97982.80
2023-01-19T16:23:54.648Z,97982.20
2023-01-19T16:26:34.225Z,97983.00
2023-01-19T16:29:10.808Z,97988.60
2023-01-19T16:31:41.114Z,97995.00
2023-01-19T16:34:10.213Z,97994.40
2023-01-19T16:36:41.121Z,97994.80
2023-01-19T16:39:13.638Z,97992.20
2023-01-19T16:41:43.226Z,97994.20
2023-01-19T16:44:16.757Z,98001.40
2023-01-19T16:46:49.658Z,98001.00
2023-01-19T16:49:24.272Z,98004.60
2023-01-19T16:51:54.903Z,97999.20
2023-01-19T16:54:28.065Z,98002.80
2023-01-19T16:56:58.209Z,98008.80
2023-01-19T16:59:27.214Z,98007.00
2023-01-19T17:01:55.910Z,98007.00
2023-01-19T17:04:26.492Z,98009.00
2023-01-19T17:06:55.636Z,98007.00
2023-01-19T17:09:23.365Z,98010.40
2023-01-19T17:11:51.135Z,98015.40
2023-01-19T17:14:22.936Z,98011.00
2023-01-19T17:16:50.860Z,98013.40
2023-01-19T17:19:22.061Z,98012.20
2023-01-19T17:21:50.369Z,98011.80
2023-01-19T17:24:20.893Z,98001.00
2023-01-19T17:26:48.844Z,98005.80
2023-01-19T17:29:17.583Z,98002.20
2023-01-19T17:31:46.738Z,98000.00
2023-01-19T17:34:14.517Z,97998.80
2023-01-19T17:36:42.340Z,98007.20
2023-01-19T17:39:14.874Z,98009.40
2023-01-19T17:41:42.738Z,98010.00
2023-01-19T17:44:10.594Z,98012.40
2023-01-19T17:46:39.233Z,98012.00
2023-01-19T17:49:08.352Z,98021.60
2023-01-19T17:51:36.429Z,98026.60
2023-01-19T17:54:04.742Z,98022.40
2023-01-19T17:56:36.792Z,98027.20
2023-01-19T17:59:07.749Z,98034.00
2023-01-19T18:01:39.826Z,98027.60
2023-01-19T18:04:08.981Z,98032.20
2023-01-19T18:06:38.201Z,98025.80
2023-01-19T18:09:07.494Z,98032.80
2023-01-19T18:11:35.833Z,98031.00
2023-01-19T18:14:05.487Z,98031.60
2023-01-19T18:16:33.386Z,98032.80
2023-01-19T18:19:01.311Z,98035.00
2023-01-19T18:21:30.553Z,98042.40
2023-01-19T18:24:02.299Z,98045.20
2023-01-19T18:26:33.052Z,98052.20
2023-01-19T18:29:01.439Z,98043.60
2023-01-19T18:31:30.224Z,98044.20
2023-01-19T18:33:58.293Z,98036.60
2023-01-19T18:36:28.462Z,98046.20
2023-01-19T18:38:56.489Z,98040.00
2023-01-19T18:41:24.488Z,98044.40
2023-01-19T18:43:56.432Z,98045.80
2023-01-19T18:46:24.565Z,98042.80
2023-01-19T18:48:53.089Z,98040.00
2023-01-19T18:51:20.954Z,98040.60
2023-01-19T18:53:48.827Z,98046.00
2023-01-19T18:56:16.836Z,98045.80
2023-01-19T18:58:45.404Z,98046.00
2023-01-19T19:01:27.261Z,98050.60
2023-01-19T19:03:56.861Z,98056.60
2023-01-19T19:06:27.220Z,98061.00
2023-01-19T19:08:59.202Z,98051.60
2023-01-19T19:11:28.107Z,98062.60
2023-01-19T19:13:59.995Z,98070.00
2023-01-19T19:16:29.691Z,98071.60
2023-01-19T19:18:59.104Z,98075.80
2023-01-19T19:21:27.121Z,98083.60
2023-01-19T19:23:57.346Z,98085.20
2023-01-19T19:26:28.149Z,98090.80
2023-01-19T19:28:56.362Z,98082.40
2023-01-19T19:31:26.137Z,98084.00
2023-01-19T19:33:56.101Z,98090.00
2023-01-19T19:36:27.305Z,98087.00
2023-01-19T19:38:55.076Z,98091.20
2023-01-19T19:41:27.746Z,98094.80
2023-01-19T19:43:56.072Z,98098.60
2023-01-19T19:46:25.088Z,98101.80
2023-01-19T19:48:54.279Z,98108.00
2023-01-19T19:51:29.477Z,98114.20
2023-01-19T19:54:00.688Z,98120.60
2023-01-19T19:56:32.385Z,98119.60
2023-01-19T19:59:00.785Z,98126.20
2023-01-19T20:01:33.623Z,98124.60
2023-01-19T20:04:11.961Z,98128.60
2023-01-19T20:06:44.827Z,98125.60
2023-01-19T20:09:14.296Z,98131.20
2023-01-19T20:11:45.058Z,98137.80
2023-01-19T20:14:16.051Z,98137.00
2023-01-19T20:16:44.222Z,98139.00
2023-01-19T20:19:11.908Z,98144.40
2023-01-19T20:21:42.058Z,98147.00
2023-01-19T20:24:20.477Z,98160.40
2023-01-19T20:26:52.477Z,98163.00
2023-01-19T20:29:20.644Z,98162.40
2023-01-19T20:31:55.357Z,98157.40
2023-01-19T20:34:32.095Z,98164.80
2023-01-19T20:37:02.454Z,98172.20
2023-01-19T20:39:33.295Z,98167.20
2023-01-19T20:42:02.159Z,98170.00
2023-01-19T20:44:30.262Z,98174.40
2023-01-19T20:46:58.083Z,98180.20
2023-01-19T20:49:28.296Z,98176.20
2023-01-19T20:51:56.014Z,98166.20
2023-01-19T20:54:27.950Z,98172.20
2023-01-19T20:56:57.637Z,98174.60
2023-01-19T20:59:26.103Z,98180.20
2023-01-19T21:01:53.996Z,98185.40
2023-01-19T21:04:22.401Z,98184.80
2023-01-19T21:06:50.115Z,98189.00
2023-01-19T21:09:18.628Z,98189.00
2023-01-19T21:11:46.416Z,98190.00
2023-01-19T21:14:14.233Z,98189.60
2023-01-19T21:16:42.607Z,98184.80
2023-01-19T21:19:10.524Z,98190.40
2023-01-19T21:21:38.304Z,98193.80
2023-01-19T21:24:06.304Z,98203.40
2023-01-19T21:26:34.126Z,98205.80
2023-01-19T21:29:04.028Z,98215.60
2023-01-19T21:31:32.088Z,98220.80
2023-01-19T21:33:59.985Z,98218.80
2023-01-19T21:36:27.691Z,98224.80
2023-01-19T21:39:00.543Z,98224.80
2023-01-19T21:41:30.100Z,98227.80
2023-01-19T21:43:59.984Z,98228.60
2023-01-19T21:46:33.034Z,98233.80
2023-01-19T21:49:04.711Z,98238.80
2023-01-19T21:51:37.015Z,98246.40
2023-01-19T21:54:06.640Z,98247.00
2023-01-19T21:56:37.860Z,98247.60
2023-01-19T21:59:06.121Z,98251.20
2023-01-19T22:01:34.977Z,98251.20
2023-01-19T22:04:02.899Z,98242.60
2023-01-19T22:06:30.586Z,98246.40
2023-01-19T22:08:58.411Z,98242.60
2023-01-19T22:11:26.697Z,98243.00
2023-01-19T22:13:54.660Z,98238.00
2023-01-19T22:16:23.985Z,98237.40
2023-01-19T22:18:59.271Z,98240.40
2023-01-19T22:21:31.721Z,98242.40
2023-01-19T22:24:04.178Z,98238.40
2023-01-19T22:26:34.158Z,98242.60
2023-01-19T22:29:04.557Z,98241.40
2023-01-19T22:31:32.716Z,98244.60
2023-01-19T22:34:00.580Z,98253.80
2023-01-19T22:36:31.832Z,98259.80
2023-01-19T22:39:11.904Z,98261.00
2023-01-19T22:41:45.129Z,98263.20
2023-01-19T22:44:21.038Z,98265.00
2023-01-19T22:46:53.542Z,98265.20
2023-01-19T22:49:21.275Z,98266.20
2023-01-19T22:51:52.575Z,98267.60
2023-01-19T22:54:23.016Z,98262.20
2023-01-19T22:56:50.703Z,98265.40
2023-01-19T22:59:18.437Z,98261.20
2023-01-19T23:01:47.216Z,98262.40
2023-01-19T23:04:16.044Z,98266.00
2023-01-19T23:06:46.949Z,98264.60
2023-01-19T23:09:15.956Z,98275.60
2023-01-19T23:11:51.230Z,98278.40
2023-01-19T23:14:22.087Z,98283.20
2023-01-19T23:16:49.925Z,98281.60
2023-01-19T23:19:18.204Z,98280.00
2023-01-19T23:21:46.197Z,98284.60
2023-01-19T23:24:14.046Z,98280.60
2023-01-19T23:26:41.860Z,98288.20
2023-01-19T23:29:15.581Z,98286.00
2023-01-19T23:31:49.652Z,98275.20
2023-01-19T23:34:17.948Z,98270.20
2023-01-19T23:36:45.748Z,98269.80
2023-01-19T23:39:21.008Z,98264.60
2023-01-19T23:41:49.554Z,98276.80
2023-01-19T23:44:18.201Z,98274.80
2023-01-19T23:46:46.483Z,98281.00
2023-01-19T23:49:14.367Z,98281.80
2023-01-19T23:51:42.438Z,98282.80
2023-01-19T23:54:12.289Z,98281.40
2023-01-19T23:56:40.196Z,98283.40
2023-01-19T23:59:14.287Z,98285.00
